Pagrindinis puslapis
METAR-TAF:

METAR-TAF

Oro uostai :

Ringkiobingas-Skjern, Danija

platuma: 56-00N, ilguma: 008-21E, Aukštis: 5 m

Dabartinis oras

Ataskaita buvo paskelbta 56 minutes, ne 11:50 UTC
Vėjas 15 kt iš Šiaurės Vakarų
Temperatūra 6°C
Drėgmė 81%
Slėgis 1018 hPa
Matomumas 10 km arba daugiau
Išsisklaidę debesys ne aukštis 2000 ft, Liūtiniai kamuoliniai debesys.
Su prošvaistėmis ne aukštis 3000 ft
lietus,

METAR: EKVJ 201150Z 31015KT 9999 -SHRA SCT020CB BKN030 06/03 Q1018

Laikas: 14:46 (12:46 UTC)

Prognozė

Ataskaita buvo paskelbta 24 valandos ir 54 minutes, ne 11:52 UTC
Prognozė galioja nuo 19 metu 12 UTC su 19 metu 16 UTC
Vėjas 12 kt iš Šiaurės Rytų
Matomumas 10 km arba daugiau
Su prošvaistėmis ne aukštis 2000 ft

TAF: EKVJ 191152Z 1912/1916 05012KT 9999 BKN020

Orai ataskaitas ir orų prognozės (METAR, TAF).

turimą stotys yra geltonos ir raudonos taškus žemėlapyje.

Perkelti pele per norėdami pamatyti stoties vardą.

Tada spustelėkite, norėdami matyti oro stebėjimo ir prognozės.

Norėdami pakeisti žemėlapį: spustelėkite ant žalios mygtukų su juodo kryžiaus žemyn,; žalią mygtuką su brūkšneliu, jei norite nutolinti; arba žalių rodyklių gretimoms žemėlapius.


METAR-TAF: